EFOU Airport Information

Runway Information
Runway 12 Length 8205 ft width 197 ft
Elevation 47 ft Threshold 0 ft Heading 121
Runway 30 Length 8205 ft Width 197 ft
Elevation 33 ft Threshold 0 ft Heading 301
Airport Frequencies
Type ATIS Name ATIS Frequency 135.45 MHZ
Type TWR Name TWR Frequency 124.4 MHZ
Airport Navaids
Type NDB Name Laanila Frequency 350 KHZ
Type VOR-DME Name Oulu Frequency 113300 KHZ
Airport Weather Information & NOTAM
ADDS - METARS form results

(1953 UTC 11 May 2021)
Data provider http://aviationweather.gov/metar/data/
 
METAR text: EFOU 111950Z AUTO VRB02KT CAVOK 08/07 Q1016
Conditions at: EFOU (OULU/ULEABORG , FI) observed 1950 UTC 11 May 2021
Temperature: 8.0°C (46°F)
Dewpoint: 7.0°C (45°F) [RH = 93%]
Pressure (altimeter): 30.00 inches Hg (1016.0 mb)
Winds: variable direction winds at 2 MPH (2 knots; 1.0 m/s)
Visibility: 6 or more miles (10+ km)
Ceiling: ceiling and visibility are OK
Clouds: unknown
Weather: no significant weather observed at this time

METAR text: EFOU 111920Z AUTO 36004KT 9999 -RA NSC 09/07 Q1015
Conditions at: EFOU (OULU/ULEABORG , FI) observed 1920 UTC 11 May 2021
Temperature: 9.0°C (48°F)
Dewpoint: 7.0°C (45°F) [RH = 87%]
Pressure (altimeter): 29.97 inches Hg (1015.0 mb)
Winds: from the N (360 degrees) at 5 MPH (4 knots; 2.1 m/s)
Visibility: 6 or more miles (10+ km)
Ceiling: at least 12,000 feet AGL
Clouds: sky clear below 12,000 feet AGL
Weather: -RA  (light rain)

Forecast for: EFOU (OULU/ULEABORG , FI)
Text: TAF EFOU 111726Z 1118/1218 VRB02KT CAVOK
Forecast period: 1800 UTC 11 May 2021 to 1800 UTC 12 May 2021
Forecast type: FROM: standard forecast or significant change
Winds: variable direction winds at 2 MPH (2 knots; 1.0 m/s)
Visibility: 6 or more miles (10+ km)
Ceiling: unknown
Clouds: missing
Weather: NSW  (no significant weather)
Text: PROB30 1121/1206 1500 BR BKN001
Forecast period: 2100 UTC 11 May 2021 to 0600 UTC 12 May 2021
Forecast type: PROBABLE: 30 percent likelihood of the following during this time
Visibility: 0.93 miles (1.50 km)
Ceiling: 100 feet AGL
Clouds: broken clouds at 100 feet AGL
Weather: BR  (mist)